• Join FlightAware (Why Join?)
  • Login
  • US Flag 
06:38AM EDT


 

Airport Tracker/Info


-or-


 

Live Flight TrackerFlight Track Log ✈ UAL395 ✈ 19-Jun-2013 ✈ KORD - KSAN

Flight Track Log - Related Links

Times and Time Zones

All times are in EDT time to prevent confusion due to time zone crossing. See the UAL395 flight status page for this flight to view local times or setup timezone preferences in your user account.

Time Position Orientation Groundspeed Altitude Reporting Facility
EDT Latitude Longitude Course Direction KTS MPH feet Rate Location/Type
07:17PM 42.0000 -87.9333 261° West 165 190 1,800  Level Chicago TRACON
07:18PM 42.0500 -87.9833 323° Northwest 217 250 3,100 1,920 Climbing Chicago TRACON
07:20PM 41.9304 -88.3483 255° West  Level FlightAware Approximate
07:20PM 42.1300 -88.0531 327° Northwest 247 284 6,900  Level Chicago Center
07:21PM 41.9130 -88.4981 261° West  Level FlightAware Approximate
07:21PM 42.1419 -88.1528 279° West 272 313 9,500  Level Chicago Center
07:22PM 41.8953 -88.6488 261° West  Level FlightAware Approximate
07:22PM 42.1097 -88.2728 250° West 288 331 12,000  Level Chicago Center
07:23PM 42.0772 -88.3717 246° West 293 337 14,300 1,500 Climbing Chicago Center
07:24PM 42.0306 -88.4717 238° Southwest 325 374 15,200 900 Climbing Chicago Center
07:25PM 41.9647 -88.5811 231° Southwest 372 428 16,200 1,200 Climbing Chicago Center
07:26PM 41.8961 -88.6950 231° Southwest 394 453 17,800 1,680 Climbing Chicago Center
07:27PM 41.8150 -88.8394 233° Southwest 408 470 19,700 1,620 Climbing Chicago Center
07:28PM 41.7817 -88.9858 253° West 416 479 21,200 1,380 Climbing Chicago Center
07:29PM 41.7475 -89.1342 253° West 422 486 22,600 1,260 Climbing Chicago Center
07:30PM 41.7122 -89.2839 253° West 426 490 23,900 1,200 Climbing Chicago Center
07:31PM 41.6711 -89.4686 253° West 432 497 25,200 1,080 Climbing Chicago Center
07:32PM 41.6381 -89.6139 253° West 440 506 26,200 900 Climbing Chicago Center
07:33PM 41.6019 -89.7719 253° West 445 512 27,100 1,560 Climbing Chicago Center
07:34PM 41.5708 -89.9297 255° West 443 510 29,500 1,320 Climbing Chicago Center
07:35PM 41.5389 -90.1125 257° West 428 493 29,900 600 Climbing Chicago Center
07:36PM 41.5086 -90.2719 256° West 440 506 30,800 960 Climbing Chicago Center
07:37PM 41.4786 -90.4314 256° West 444 511 32,000 1,200 Climbing Chicago Center
07:38PM 41.4511 -90.5844 257° West 434 499 33,400 960 Climbing Chicago Center
07:39PM 41.4194 -90.7381 255° West 432 497 34,000 240 Climbing Chicago Center
07:40PM 41.3917 -90.8864 256° West 418 481 34,000  Level Chicago Center
07:41PM 41.3558 -91.0661 255° West 421 484 34,000  Level Chicago Center
07:42PM 41.3272 -91.2153 256° West 420 483 34,000  Level Chicago Center
07:43PM 41.2969 -91.3694 255° West 421 484 34,000 180 Level Chicago Center
07:44PM 41.2667 -91.5211 255° West 424 488 34,400 480 Climbing Chicago Center
07:45PM 41.2325 -91.6889 255° West 424 488 35,100 660 Climbing Chicago Center
07:46PM 41.2028 -91.8386 255° West 423 487 35,800 420 Climbing Chicago Center
07:48PM 41.1728 -91.9872 255° West 423 487 36,000 60 Climbing Chicago Center
07:49PM 41.1411 -92.1369 254° West 425 489 36,000  Level Chicago Center
07:50PM 41.1053 -92.3139 255° West 422 486 36,000  Level Chicago Center
07:51PM 41.0744 -92.4628 255° West 423 487 36,000  Level Chicago Center
07:52PM 41.0433 -92.6114 255° West 424 488 36,000  Level Chicago Center
07:53PM 41.0111 -92.7617 254° West 428 493 36,000  Level Chicago Center
07:54PM 40.9742 -92.9411 255° West 428 493 36,000  Level Chicago Center
07:55PM 40.9422 -93.0906 254° West 427 491 36,000  Level Chicago Center
07:56PM 40.9086 -93.2389 253° West 428 493 36,000  Level Chicago Center
07:57PM 40.8775 -93.3878 255° West 426 490 36,000  Level Chicago Center
07:58PM 40.8444 -93.5353 254° West 424 488 36,000  Level Chicago Center
07:59PM 40.8047 -93.7147 254° West 428 493 36,000  Level Chicago Center
08:00PM 40.7714 -93.8625 253° West 424 488 36,000  Level Chicago Center
08:01PM 40.7386 -94.0094 254° West 422 486 36,000  Level Chicago Center
08:02PM 40.7069 -94.1567 254° West 421 484 36,000  Level Chicago Center
08:03PM 40.6664 -94.3308 253° West 419 482 36,000  Level Chicago Center
08:04PM 40.6242 -94.5061 252° West 421 484 36,000  Level Minneapolis Center
08:05PM 40.5894 -94.6606 254° West 418 481 36,000  Level Minneapolis Center
08:06PM 40.5556 -94.8078 253° West 418 481 36,000  Level Minneapolis Center
08:07PM 40.5217 -94.9528 253° West 416 479 36,000  Level Minneapolis Center
08:08PM 40.4811 -95.1278 253° West 416 479 36,000  Level Minneapolis Center
08:10PM 40.4469 -95.2744 253° West 417 480 36,000  Level Minneapolis Center
08:11PM 40.4114 -95.4208 252° West 419 482 36,000  Level Minneapolis Center
08:12PM 40.3761 -95.5692 253° West 422 486 36,000  Level Minneapolis Center
08:13PM 40.3408 -95.7172 253° West 424 488 36,000  Level Minneapolis Center
08:14PM 40.2986 -95.8931 253° West 421 484 36,000  Level Minneapolis Center
08:15PM 40.2625 -96.0367 252° West 416 479 36,000  Level Minneapolis Center
08:16PM 40.2197 -96.2117 252° West 419 482 36,000  Level Minneapolis Center
08:17PM 40.1831 -96.3575 252° West 420 483 36,000  Level Minneapolis Center
08:18PM 40.1478 -96.5042 253° West 422 486 36,000  Level Minneapolis Center
08:19PM 40.1108 -96.6486 252° West 421 484 36,000  Level Minneapolis Center
08:20PM 40.0736 -96.7950 252° West 422 486 36,000  Level Minneapolis Center
08:21PM 40.0375 -96.9392 252° West 419 482 36,000  Level Minneapolis Center
08:22PM 39.9931 -97.1139 252° West 421 484 36,000  Level Minneapolis Center
08:23PM 39.9550 -97.2592 251° West 423 487 36,000  Level Minneapolis Center
08:24PM 39.9200 -97.3936 251° West 424 488 36,000  Level Minneapolis Center
08:25PM 39.8825 -97.5381 251° West 422 486 36,000  Level Minneapolis Center
08:26PM 39.8383 -97.7108 252° West 419 482 36,000  Level Minneapolis Center
08:27PM 39.8000 -97.8561 251° West 421 484 36,000  Level Minneapolis Center
08:28PM 39.7619 -98.0000 251° West 421 484 36,000  Level Minneapolis Center
08:30PM 39.7236 -98.1422 251° West 419 482 36,000  Level Minneapolis Center
08:31PM 39.6769 -98.3133 251° West 418 481 36,000  Level Minneapolis Center
08:32PM 39.6383 -98.4575 251° West 421 484 36,000  Level Minneapolis Center
08:33PM 39.5917 -98.6303 251° West 422 486 36,000  Level Minneapolis Center
08:34PM 39.5525 -98.7744 251° West 423 487 36,000  Level Minneapolis Center
08:35PM 39.5133 -98.9172 250° West 422 486 36,000  Level Minneapolis Center
08:36PM 39.4739 -99.0603 250° West 421 484 36,000  Level Minneapolis Center
08:37PM 39.4347 -99.2017 250° West 419 482 36,000  Level Minneapolis Center
08:38PM 39.3958 -99.3433 250° West 418 481 36,000  Level Minneapolis Center
08:39PM 39.3553 -99.4839 250° West 417 480 36,000  Level Minneapolis Center
08:40PM 39.3072 -99.6544 250° West 419 482 36,000  Level Minneapolis Center
08:41PM 39.2683 -99.7967 251° West 419 482 36,000  Level Minneapolis Center
08:42PM 39.2289 -99.9378 250° West 419 482 36,000  Level Minneapolis Center
08:43PM 39.1756 -100.1156 249° West 416 479 36,000  Level Denver Center
08:44PM 39.1356 -100.2511 249° West 419 482 36,000  Level Denver Center
08:45PM 39.1039 -100.4167 256° West 428 493 36,000  Level Denver Center
08:47PM 39.0872 -100.5597 262° West 424 488 36,000  Level Denver Center
08:48PM 39.0658 -100.7497 262° West 421 484 36,000  Level Denver Center
08:49PM 39.0472 -100.9158 262° West 420 483 36,000  Level Denver Center
08:50PM 39.0319 -101.0631 262° West 427 491 36,000  Level Denver Center
08:51PM 39.0122 -101.2517 262° West 423 487 36,000  Level Denver Center
08:52PM 38.9992 -101.3936 263° West 420 483 36,000  Level Denver Center
08:53PM 38.9844 -101.5583 263° West 417 480 36,000  Level Denver Center
08:54PM 38.9706 -101.6986 263° West 415 478 36,000  Level Denver Center
08:55PM 38.9589 -101.8414 264° West 417 480 36,000  Level Denver Center
08:56PM 38.9444 -102.0067 264° West 418 481 36,000  Level Denver Center
08:58PM 38.8864 -102.1894 257° West  Level Estimated
08:58PM 38.9150 -102.3131 257° West 417 480 36,000  Level Denver Center
08:59PM 38.8686 -102.4681 249° West 418 481 36,000  Level Denver Center
09:00PM 38.8133 -102.5950 241° Southwest 422 486 36,000  Level Denver Center
09:01PM 38.7506 -102.7392 241° Southwest 421 484 36,000  Level Denver Center
09:02PM 38.6989 -102.8594 241° Southwest 416 479 36,000  Level Denver Center
09:03PM 38.6425 -102.9867 240° Southwest 413 475 36,000  Level Denver Center
09:04PM 38.5767 -103.1400 241° Southwest 410 472 36,000  Level Denver Center
09:05PM 38.5189 -103.2686 240° Southwest 412 474 36,000  Level Denver Center
09:07PM 38.4547 -103.4122 240° Southwest 415 478 36,000  Level Denver Center
09:08PM 38.3922 -103.5542 241° Southwest 415 478 36,000  Level Denver Center
09:09PM 38.3372 -103.6786 241° Southwest 420 483 36,000  Level Denver Center
09:10PM 38.2722 -103.8231 240° Southwest 421 484 36,000  Level Denver Center
09:11PM 38.2161 -103.9483 240° Southwest 427 491 36,000  Level Denver Center
09:12PM 38.1522 -104.0925 241° Southwest 422 486 36,000  Level Denver Center
09:13PM 38.0961 -104.2139 240° Southwest 421 484 36,000  Level Denver Center
09:14PM 38.0311 -104.3569 240° Southwest 422 486 36,000  Level Denver Center
09:15PM 37.9761 -104.4769 240° Southwest 416 479 36,000  Level Denver Center
09:16PM 37.9122 -104.6161 240° Southwest 412 474 36,000  Level Denver Center
09:17PM 37.8569 -104.7350 240° Southwest 412 474 36,000  Level Denver Center
09:18PM 37.7925 -104.8750 240° Southwest 413 475 36,000  Level Denver Center
09:19PM 37.7364 -104.9947 239° Southwest 414 476 36,000  Level Denver Center
09:20PM 37.6703 -105.1364 240° Southwest 420 483 36,000  Level Denver Center
09:21PM 37.6125 -105.2575 239° Southwest 422 486 36,000  Level Denver Center
09:22PM 37.5472 -105.3978 240° Southwest 417 480 36,000  Level Denver Center
09:23PM 37.4831 -105.5294 238° Southwest 424 488 36,000  Level Denver Center
09:24PM 37.4278 -105.6500 240° Southwest 417 480 36,000  Level Denver Center
09:25PM 37.3611 -105.7875 239° Southwest 412 474 36,000  Level Denver Center
09:26PM 37.3131 -105.9094 244° Southwest 408 470 36,000  Level Denver Center
09:27PM 37.2633 -106.0547 247° West 406 467 36,000  Level Denver Center
09:28PM 37.2178 -106.1808 246° West 412 474 36,000  Level Denver Center
09:29PM 37.1656 -106.3294 246° West 417 480 36,000  Level Denver Center
09:31PM 37.1164 -106.4558 244° Southwest 421 484 36,000  Level Denver Center
09:32PM 37.0569 -106.6253 246° West 416 479 36,000  Level Denver Center
09:33PM 37.0103 -106.7508 245° Southwest 415 478 36,000  Level Denver Center
09:34PM 36.9561 -106.8944 245° Southwest 409 471 36,000  Level Denver Center
09:35PM 36.9114 -107.0175 246° West 407 468 36,000  Level Denver Center
09:36PM 36.8583 -107.1597 245° Southwest 405 466 36,000  Level Denver Center
09:37PM 36.8128 -107.2822 245° Southwest 408 470 36,000  Level Denver Center
09:38PM 36.7594 -107.4242 245° Southwest 406 467 36,000  Level Denver Center
09:39PM 36.7133 -107.5461 245° Southwest 406 467 36,000  Level Denver Center
09:40PM 36.6600 -107.6886 245° Southwest 407 468 36,000  Level Denver Center
09:41PM 36.6139 -107.8094 245° Southwest 406 467 36,000  Level Denver Center
09:42PM 36.5608 -107.9506 245° Southwest 404 465 36,000  Level Denver Center
09:43PM 36.5150 -108.0714 245° Southwest 404 465 36,000  Level Denver Center
09:44PM 36.4614 -108.2117 245° Southwest 403 464 36,000  Level Denver Center
09:45PM 36.4144 -108.3319 244° Southwest 405 466 36,000  Level Denver Center
09:46PM 36.3683 -108.4536 245° Southwest 406 467 36,000  Level Denver Center
09:47PM 36.3147 -108.5914 244° Southwest 401 461 36,000  Level Denver Center
09:48PM 36.2686 -108.7083 244° Southwest 398 458 36,000  Level Denver Center
09:49PM 36.2167 -108.8461 245° Southwest 399 459 36,000  Level Denver Center
09:50PM 36.1600 -108.9861 243° Southwest 412 474 36,000  Level Denver Center
09:52PM 36.0956 -109.1453 243° Southwest 411 473 36,000  Level Denver Center
09:53PM 36.0478 -109.2639 244° Southwest 406 467 36,000  Level Denver Center
09:54PM 35.9994 -109.3839 244° Southwest 408 470 36,000  Level Denver Center
09:55PM 35.9436 -109.5228 244° Southwest 405 466 36,000  Level Denver Center
09:56PM 35.8969 -109.6425 244° Southwest 406 467 36,000  Level Denver Center
09:57PM 35.8400 -109.7794 243° Southwest 403 464 36,000  Level Denver Center
09:58PM 35.7917 -109.8981 243° Southwest 403 464 36,000  Level Denver Center
09:59PM 35.7358 -110.0369 244° Southwest 404 465 36,000  Level Denver Center
10:00PM 35.6831 -110.1656 243° Southwest 406 467 36,000  Level Denver Center
10:01PM 35.6328 -110.2894 243° Southwest 406 467 36,000  Level Denver Center
10:02PM 35.5728 -110.4319 243° Southwest 406 467 36,000  Level Denver Center
10:03PM 35.5331 -110.5322 244° Southwest 408 470 36,000  Level Denver Center
10:04PM 35.4711 -110.6772 242° Southwest 408 470 36,000  Level Los Angeles Center
10:05PM 35.4211 -110.7994 243° Southwest 405 466 36,000  Level Los Angeles Center
10:06PM 35.3703 -110.9217 243° Southwest 405 466 36,000  Level Los Angeles Center
10:07PM 35.3081 -111.0703 243° Southwest 406 467 36,000  Level Los Angeles Center
10:08PM 35.2556 -111.1911 242° Southwest 403 464 36,000  Level Los Angeles Center
10:09PM 35.2050 -111.3147 243° Southwest 406 467 36,000  Level Los Angeles Center
10:10PM 35.1539 -111.4361 243° Southwest 403 464 36,000  Level Los Angeles Center
10:11PM 35.1011 -111.5581 242° Southwest 407 468 36,000  Level Albuquerque Center
10:12PM 35.0386 -111.7042 242° Southwest 406 467 36,000  Level Albuquerque Center
10:13PM 34.9856 -111.8261 242° Southwest 412 474 36,000  Level Albuquerque Center
10:14PM 34.9333 -111.9506 243° Southwest 413 475 36,000  Level Albuquerque Center
10:15PM 34.8797 -112.0739 242° Southwest 413 475 36,000  Level Albuquerque Center
10:17PM 34.7733 -112.3186 242° Southwest 411 473 36,000  Level Albuquerque Center
10:18PM 34.7203 -112.4397 242° Southwest 409 471 36,000  Level Albuquerque Center
10:19PM 34.6800 -112.5689 249° West 410 472 36,000  Level Albuquerque Center
10:20PM 34.6442 -112.6997 252° West 411 473 36,000  Level Albuquerque Center
10:22PM 34.6028 -112.8575 252° West 410 472 36,000  Level Albuquerque Center
10:23PM 34.5675 -112.9883 252° West 410 472 36,000  Level Albuquerque Center
10:24PM 34.5328 -113.1194 252° West 410 472 36,000  Level Albuquerque Center
10:25PM 34.4975 -113.2514 252° West 411 473 36,000  Level Albuquerque Center
10:26PM 34.4619 -113.3825 252° West 411 473 36,000  Level Albuquerque Center
10:27PM 34.4264 -113.5147 252° West 413 475 36,000 -420 Level Albuquerque Center
10:28PM 34.3894 -113.6464 251° West 411 473 35,200 -900 Descending Albuquerque Center
10:29PM 34.3531 -113.7781 252° West 412 474 34,200 -600 Descending Albuquerque Center
10:30PM 34.3086 -113.9358 251° West 413 475 34,000 -120 Descending Albuquerque Center
10:31PM 34.2731 -114.0675 252° West 412 474 34,000 -360 Level Albuquerque Center
10:32PM 34.2383 -114.1964 252° West 408 470 33,300 -840 Descending Albuquerque Center
10:33PM 34.2011 -114.3261 251° West 407 468 32,400 -960 Descending Albuquerque Center
10:34PM 34.1653 -114.4567 252° West 409 471 31,400 -960 Descending Albuquerque Center
10:35PM 34.1197 -114.6217 252° West 410 472 30,100 -600 Descending Los Angeles Center
10:36PM 34.0636 -114.7728 246° West 415 478 30,000 -420 Descending Los Angeles Center
10:37PM 34.0103 -114.8922 242° Southwest 407 468 29,300 -840 Descending Los Angeles Center
10:38PM 33.9583 -115.0089 242° Southwest 397 457 28,300 -1,020 Descending Los Angeles Center
10:39PM 33.9067 -115.1256 242° Southwest 398 458 27,300 -1,020 Descending Los Angeles Center
10:40PM 33.8547 -115.2431 242° Southwest 399 459 26,300 -1,020 Descending Los Angeles Center
10:41PM 33.8033 -115.3575 242° Southwest 393 452 25,300 -1,020 Descending Los Angeles Center
10:42PM 33.7414 -115.4939 241° Southwest 387 445 24,200 -720 Descending Los Angeles Center
10:43PM 33.6928 -115.6044 242° Southwest 378 435 23,900 -120 Descending Los Angeles Center
10:44PM 33.6419 -115.7158 241° Southwest 381 438 24,000  Climbing Los Angeles Center
10:45PM 33.5661 -115.8122 227° Southwest 403 464 23,900  Descending Los Angeles Center
10:46PM 33.4819 -115.9075 223° Southwest 416 479 24,000 -840 Climbing Los Angeles Center
10:48PM 33.3975 -116.0025 223° Southwest 418 481 22,200 -2,160 Descending Los Angeles Center
10:49PM 33.3003 -116.1128 223° Southwest 404 465 19,600 -2,400 Descending Los Angeles Center
10:50PM 33.2206 -116.2019 223° Southwest 396 456 17,300 -2,040 Descending Los Angeles Center
10:51PM 33.1444 -116.2878 223° Southwest 383 441 15,500 -1,800 Descending Los Angeles Center
10:52PM 33.0694 -116.3725 223° Southwest 376 433 13,700 -1,920 Descending Los Angeles Center
10:53PM 32.9950 -116.4569 224° Southwest 357 411 11,600 -1,800 Descending Los Angeles Center
10:54PM 32.9286 -116.5594 232° Southwest 356 410 10,100 -960 Descending Los Angeles Center
10:55PM 32.8764 -116.6353 231° Southwest 311 358 9,700 -1,020 Descending Los Angeles Center
10:56PM 32.8278 -116.7061 231° Southwest 284 327 8,100 -1,560 Descending Los Angeles Center
10:57PM 32.7794 -116.7772 231° Southwest 278 320 6,500 -1,500 Descending Los Angeles Center
10:58PM 32.7319 -116.8478 231° Southwest 277 319 5,000 -840 Descending Los Angeles Center
10:59PM 32.6842 -116.9164 230° Southwest 272 313 4,800 -780 Descending Los Angeles Center
11:00PM 32.6883 -117.0047 273° West 231 266 3,500 -1,320 Descending Los Angeles Center